createdAt,value
2022-10-16T00:01:35.108Z,18.20
2022-10-16T00:04:02.563Z,18.30
2022-10-16T00:06:30.289Z,18.20
2022-10-16T00:08:57.362Z,18.20
2022-10-16T00:11:30.245Z,18.20
2022-10-16T00:13:59.730Z,18.30
2022-10-16T00:16:27.544Z,18.30
2022-10-16T00:18:54.838Z,18.20
2022-10-16T00:21:25.185Z,18.20
2022-10-16T00:23:57.387Z,18.30
2022-10-16T00:26:24.515Z,18.30
2022-10-16T00:28:52.325Z,18.30
2022-10-16T00:31:21.298Z,18.20
2022-10-16T00:33:48.244Z,18.30
2022-10-16T00:36:18.912Z,18.30
2022-10-16T00:38:45.944Z,18.30
2022-10-16T00:41:16.545Z,18.30
2022-10-16T00:43:58.523Z,18.30
2022-10-16T00:46:38.017Z,18.30
2022-10-16T00:49:11.427Z,18.30
2022-10-16T00:51:48.365Z,18.30
2022-10-16T00:54:22.372Z,18.30
2022-10-16T00:56:50.133Z,18.30
2022-10-16T00:59:21.538Z,18.30
2022-10-16T01:01:48.363Z,18.30
2022-10-16T01:04:15.475Z,18.30
2022-10-16T01:06:48.159Z,18.20
2022-10-16T01:09:32.166Z,18.30
2022-10-16T01:12:22.212Z,18.30
2022-10-16T01:15:00.810Z,18.20
2022-10-16T01:17:49.216Z,18.20
2022-10-16T01:20:24.942Z,18.20
2022-10-16T01:23:10.722Z,18.20
2022-10-16T01:26:02.458Z,18.20
2022-10-16T01:28:35.449Z,18.10
2022-10-16T01:31:03.785Z,18.20
2022-10-16T01:33:42.814Z,18.20
2022-10-16T01:36:15.453Z,18.10
2022-10-16T01:38:46.068Z,18.10
2022-10-16T01:41:36.250Z,18.20
2022-10-16T01:44:19.877Z,18.20
2022-10-16T01:46:51.318Z,18.20
2022-10-16T01:49:19.759Z,18.20
2022-10-16T01:51:50.840Z,18.10
2022-10-16T01:54:19.881Z,18.10
2022-10-16T01:56:48.875Z,18.00
2022-10-16T01:59:19.563Z,18.10
2022-10-16T02:01:50.298Z,18.10
2022-10-16T02:04:24.362Z,18.00
2022-10-16T02:06:51.557Z,18.10
2022-10-16T02:09:18.251Z,18.00
2022-10-16T02:11:45.587Z,18.00
2022-10-16T02:14:12.589Z,18.10
2022-10-16T02:16:44.807Z,18.00
2022-10-16T02:19:16.076Z,18.00
2022-10-16T02:21:50.025Z,18.00
2022-10-16T02:24:40.521Z,17.90
2022-10-16T02:27:20.032Z,18.00
2022-10-16T02:29:51.421Z,18.00
2022-10-16T02:32:22.246Z,18.00
2022-10-16T02:34:51.671Z,17.90
2022-10-16T02:37:19.747Z,17.90
2022-10-16T02:39:46.578Z,17.90
2022-10-16T02:42:15.017Z,17.80
2022-10-16T02:44:42.098Z,17.80
2022-10-16T02:47:08.819Z,17.80
2022-10-16T02:49:35.632Z,17.90
2022-10-16T02:52:02.471Z,17.80
2022-10-16T02:54:29.287Z,17.80
2022-10-16T02:56:56.075Z,17.80
2022-10-16T02:59:22.849Z,17.80
2022-10-16T03:01:49.595Z,17.80
2022-10-16T03:04:16.582Z,17.80
2022-10-16T03:06:43.367Z,17.80
2022-10-16T03:09:10.343Z,17.80
2022-10-16T03:11:37.114Z,17.70
2022-10-16T03:14:04.166Z,17.80
2022-10-16T03:16:30.964Z,17.80
2022-10-16T03:18:57.730Z,17.80
2022-10-16T03:21:24.527Z,17.80
2022-10-16T03:23:51.275Z,17.80
2022-10-16T03:26:18.029Z,17.70
2022-10-16T03:28:44.935Z,17.80
2022-10-16T03:31:11.777Z,17.80
2022-10-16T03:33:38.587Z,17.80
2022-10-16T03:36:05.408Z,17.70
2022-10-16T03:38:32.188Z,17.70
2022-10-16T03:40:59.034Z,17.70
2022-10-16T03:43:25.789Z,17.70
2022-10-16T03:45:52.932Z,17.70
2022-10-16T03:48:20.284Z,17.70
2022-10-16T03:50:49.049Z,17.70
2022-10-16T03:53:16.226Z,17.80
2022-10-16T03:55:43.854Z,17.80
2022-10-16T03:58:10.625Z,17.70
2022-10-16T04:00:40.708Z,17.70
2022-10-16T04:03:07.423Z,17.80
2022-10-16T04:05:34.126Z,17.80
2022-10-16T04:08:00.969Z,17.80
2022-10-16T04:10:27.783Z,17.80
2022-10-16T04:12:57.039Z,17.80
2022-10-16T04:15:24.523Z,17.80
2022-10-16T04:17:51.381Z,17.80
2022-10-16T04:20:18.523Z,17.80
2022-10-16T04:22:45.894Z,17.80
2022-10-16T04:25:12.921Z,17.80
2022-10-16T04:27:42.319Z,17.80
2022-10-16T04:30:12.227Z,17.70
2022-10-16T04:32:38.950Z,17.80
2022-10-16T04:35:06.214Z,17.80
2022-10-16T04:37:33.184Z,17.80
2022-10-16T04:39:59.925Z,17.70
2022-10-16T04:42:26.667Z,17.70
2022-10-16T04:44:53.661Z,17.70
2022-10-16T04:47:20.328Z,17.80
2022-10-16T04:49:47.029Z,17.70
2022-10-16T04:52:13.805Z,17.70
2022-10-16T04:54:40.494Z,17.70
2022-10-16T04:57:07.286Z,17.70
2022-10-16T04:59:34.026Z,17.80
2022-10-16T05:02:00.747Z,17.70
2022-10-16T05:04:27.742Z,17.70
2022-10-16T05:06:54.482Z,17.70
2022-10-16T05:09:21.450Z,17.70
2022-10-16T05:11:48.259Z,17.70
2022-10-16T05:14:15.118Z,17.60
2022-10-16T05:16:41.990Z,17.60
2022-10-16T05:19:26.986Z,17.60
2022-10-16T05:21:54.681Z,17.60
2022-10-16T05:24:21.676Z,17.60
2022-10-16T05:26:48.717Z,17.60
2022-10-16T05:29:15.960Z,17.60
2022-10-16T05:31:42.690Z,17.70
2022-10-16T05:34:09.845Z,17.60
2022-10-16T05:36:36.662Z,17.60
2022-10-16T05:39:04.047Z,17.60
2022-10-16T05:41:30.820Z,17.60
2022-10-16T05:43:57.613Z,17.70
2022-10-16T05:46:24.339Z,17.60
2022-10-16T05:48:54.203Z,17.60
2022-10-16T05:51:20.917Z,17.60
2022-10-16T05:53:47.992Z,17.60
2022-10-16T05:56:15.018Z,17.60
2022-10-16T05:58:42.539Z,17.60
2022-10-16T06:01:13.409Z,17.60
2022-10-16T06:03:41.045Z,17.60
2022-10-16T06:06:21.881Z,17.70
2022-10-16T06:08:50.165Z,17.70
2022-10-16T06:11:31.534Z,17.60
2022-10-16T06:14:07.558Z,17.60
2022-10-16T06:16:38.461Z,17.60
2022-10-16T06:19:08.159Z,17.60
2022-10-16T06:21:35.102Z,17.60
2022-10-16T06:24:02.203Z,17.60
2022-10-16T06:26:31.032Z,17.50
2022-10-16T06:28:59.921Z,17.60
2022-10-16T06:31:28.907Z,17.60
2022-10-16T06:33:57.138Z,17.60
2022-10-16T06:36:25.759Z,17.50
2022-10-16T06:38:52.708Z,17.60
2022-10-16T06:41:21.545Z,17.60
2022-10-16T06:43:49.085Z,17.70
2022-10-16T06:46:19.106Z,17.70
2022-10-16T06:48:46.215Z,17.70
2022-10-16T06:51:14.781Z,17.80
2022-10-16T06:54:01.833Z,17.70
2022-10-16T06:56:32.185Z,17.70
2022-10-16T06:58:59.361Z,17.80
2022-10-16T07:01:26.965Z,17.80
2022-10-16T07:03:54.632Z,17.80
2022-10-16T07:06:23.754Z,17.80
2022-10-16T07:08:50.932Z,17.80
2022-10-16T07:11:20.481Z,17.90
2022-10-16T07:13:52.600Z,17.90
2022-10-16T07:16:27.828Z,18.00
2022-10-16T07:18:59.921Z,18.00
2022-10-16T07:21:30.015Z,18.00
2022-10-16T07:23:59.614Z,18.10
2022-10-16T07:26:28.948Z,18.10
2022-10-16T07:28:56.020Z,18.10
2022-10-16T07:31:23.765Z,18.20
2022-10-16T07:33:50.897Z,18.30
2022-10-16T07:36:19.206Z,18.30
2022-10-16T07:38:46.702Z,18.40
2022-10-16T07:41:15.939Z,18.50
2022-10-16T07:43:48.417Z,18.60
2022-10-16T07:46:16.181Z,18.60
2022-10-16T07:48:46.616Z,18.60
2022-10-16T07:51:15.255Z,18.60
2022-10-16T07:53:42.246Z,18.60
2022-10-16T07:56:09.177Z,18.60
2022-10-16T07:58:39.793Z,18.70
2022-10-16T08:01:09.230Z,18.80
2022-10-16T08:03:36.284Z,18.80
2022-10-16T08:06:03.918Z,18.80
2022-10-16T08:08:31.298Z,18.80
2022-10-16T08:10:58.099Z,18.80
2022-10-16T08:13:25.183Z,18.80
2022-10-16T08:15:51.901Z,18.80
2022-10-16T08:18:18.721Z,18.90
2022-10-16T08:20:45.485Z,18.90
2022-10-16T08:23:14.074Z,18.90
2022-10-16T08:25:42.236Z,18.90
2022-10-16T08:28:11.022Z,19.00
2022-10-16T08:30:38.175Z,19.00
2022-10-16T08:33:05.402Z,19.00
2022-10-16T08:35:32.215Z,19.00
2022-10-16T08:37:59.030Z,19.00
2022-10-16T08:40:34.114Z,19.00
2022-10-16T08:43:22.129Z,19.10
2022-10-16T08:46:12.180Z,19.10
2022-10-16T08:48:51.670Z,19.10
2022-10-16T08:51:25.073Z,19.10
2022-10-16T08:53:56.329Z,19.10
2022-10-16T08:56:24.128Z,19.10
2022-10-16T08:58:55.099Z,19.10
2022-10-16T09:01:40.322Z,19.20
2022-10-16T09:04:19.979Z,19.20
2022-10-16T09:06:47.618Z,19.30
2022-10-16T09:09:43.289Z,19.30
2022-10-16T09:12:21.629Z,19.30
2022-10-16T09:15:07.530Z,19.40
2022-10-16T09:17:57.565Z,19.40
2022-10-16T09:20:37.303Z,19.40
2022-10-16T09:23:06.757Z,19.40
2022-10-16T09:25:34.939Z,19.50
2022-10-16T09:28:01.628Z,19.50
2022-10-16T09:30:32.554Z,19.50
2022-10-16T09:33:00.304Z,19.50
2022-10-16T09:35:43.670Z,19.50
2022-10-16T09:38:22.083Z,19.50
2022-10-16T09:40:52.127Z,19.60
2022-10-16T09:43:39.993Z,19.50
2022-10-16T09:46:10.097Z,19.60
2022-10-16T09:48:45.368Z,19.60
2022-10-16T09:51:24.537Z,19.60
2022-10-16T09:53:56.818Z,19.60
2022-10-16T09:56:29.508Z,19.60
2022-10-16T09:59:11.442Z,19.60
2022-10-16T10:01:41.422Z,19.70
2022-10-16T10:04:09.027Z,19.70
2022-10-16T10:06:57.185Z,19.70
2022-10-16T10:09:35.355Z,19.70
2022-10-16T10:14:41.113Z,19.80
2022-10-16T10:17:07.898Z,19.80
2022-10-16T10:19:40.481Z,19.80
2022-10-16T10:22:29.111Z,19.80
2022-10-16T10:25:29.939Z,19.90
2022-10-16T10:28:14.601Z,19.90
2022-10-16T10:31:09.292Z,19.90
2022-10-16T10:33:46.026Z,19.90
2022-10-16T10:36:31.482Z,19.90
2022-10-16T10:39:06.730Z,19.90
2022-10-16T10:41:52.484Z,20.00
2022-10-16T10:44:46.327Z,20.00
2022-10-16T10:47:38.252Z,20.00
2022-10-16T10:50:32.985Z,20.00
2022-10-16T10:53:25.947Z,20.10
2022-10-16T10:56:14.183Z,20.10
2022-10-16T10:59:20.099Z,20.00
2022-10-16T11:01:57.564Z,20.10
2022-10-16T11:04:44.040Z,20.10
2022-10-16T11:07:26.065Z,20.20
2022-10-16T11:10:03.340Z,20.20
2022-10-16T11:12:40.652Z,20.20
2022-10-16T11:15:18.132Z,20.20
2022-10-16T11:18:22.398Z,20.20
2022-10-16T11:20:57.178Z,20.20
2022-10-16T11:23:42.759Z,20.30
2022-10-16T11:26:24.661Z,20.30
2022-10-16T11:28:57.059Z,20.30
2022-10-16T11:31:44.049Z,20.30
2022-10-16T11:34:37.944Z,20.40
2022-10-16T11:37:18.171Z,20.50
2022-10-16T11:39:46.079Z,20.50
2022-10-16T11:42:20.414Z,20.50
2022-10-16T11:45:06.062Z,20.60
2022-10-16T11:47:58.748Z,20.60
2022-10-16T11:51:04.620Z,20.60
2022-10-16T11:53:46.365Z,20.60
2022-10-16T11:56:23.655Z,20.70
2022-10-16T11:59:04.994Z,20.70
2022-10-16T12:01:40.256Z,20.70
2022-10-16T12:04:22.096Z,20.70
2022-10-16T12:07:05.543Z,20.70
2022-10-16T12:09:34.101Z,20.70
2022-10-16T12:12:01.494Z,20.70
2022-10-16T12:14:46.887Z,20.70
2022-10-16T12:17:21.846Z,20.80
2022-10-16T12:20:16.337Z,20.80
2022-10-16T12:22:57.958Z,20.80
2022-10-16T12:25:29.858Z,20.80
2022-10-16T12:28:18.327Z,20.80
2022-10-16T12:30:55.023Z,20.80
2022-10-16T12:33:31.251Z,20.70
2022-10-16T12:36:01.404Z,20.80
2022-10-16T12:38:37.096Z,20.80
2022-10-16T12:41:06.463Z,20.90
2022-10-16T12:43:46.958Z,21.00
2022-10-16T12:46:13.779Z,21.00
2022-10-16T12:48:55.365Z,21.00
2022-10-16T12:51:31.295Z,20.90
2022-10-16T12:54:11.642Z,20.90
2022-10-16T12:56:44.504Z,20.90
2022-10-16T12:59:17.645Z,20.90
2022-10-16T13:02:29.508Z,20.80
2022-10-16T13:05:05.288Z,20.80
2022-10-16T13:07:42.814Z,20.80
2022-10-16T13:10:42.125Z,20.80
2022-10-16T13:13:27.146Z,21.30
2022-10-16T13:16:36.263Z,20.80
2022-10-16T13:19:26.995Z,20.80
2022-10-16T13:22:12.190Z,20.90
2022-10-16T13:24:50.845Z,20.90
2022-10-16T13:27:20.719Z,20.90
2022-10-16T13:29:56.328Z,20.90
2022-10-16T13:32:23.454Z,20.90
2022-10-16T13:34:50.499Z,20.90
2022-10-16T13:37:23.345Z,20.90
2022-10-16T13:39:51.670Z,20.90
2022-10-16T13:42:28.018Z,20.90
2022-10-16T13:44:57.342Z,20.90
2022-10-16T13:47:27.248Z,20.90
2022-10-16T13:50:20.549Z,20.90
2022-10-16T13:52:47.514Z,20.90
2022-10-16T13:55:19.596Z,20.90
2022-10-16T13:57:46.487Z,20.90
2022-10-16T14:00:20.827Z,20.90
2022-10-16T14:02:54.122Z,20.90
2022-10-16T14:05:21.101Z,20.90
2022-10-16T14:07:52.173Z,20.90
2022-10-16T14:10:27.564Z,20.90
2022-10-16T14:13:03.918Z,20.90
2022-10-16T14:15:33.654Z,20.90
2022-10-16T14:18:00.968Z,20.90
2022-10-16T14:20:30.919Z,20.90
2022-10-16T14:23:02.213Z,20.90
2022-10-16T14:25:32.650Z,20.90
2022-10-16T14:28:14.920Z,20.80
2022-10-16T14:30:53.698Z,20.80
2022-10-16T14:33:26.307Z,20.80
2022-10-16T14:36:21.620Z,20.80
2022-10-16T14:39:15.622Z,20.80
2022-10-16T14:41:46.533Z,20.80
2022-10-16T14:44:13.896Z,20.90
2022-10-16T14:46:43.757Z,20.90
2022-10-16T14:49:10.478Z,20.90
2022-10-16T14:51:38.753Z,20.90
2022-10-16T14:54:06.186Z,20.90
2022-10-16T14:56:51.943Z,20.90
2022-10-16T14:59:31.328Z,20.80
2022-10-16T15:01:58.268Z,20.80
2022-10-16T15:04:25.072Z,20.80
2022-10-16T15:06:52.220Z,20.80
2022-10-16T15:09:18.952Z,20.80
2022-10-16T15:11:45.870Z,20.70
2022-10-16T15:16:41.952Z,20.70
2022-10-16T15:19:08.846Z,20.70
2022-10-16T15:21:35.700Z,20.70
2022-10-16T15:24:02.635Z,20.70
2022-10-16T15:26:31.033Z,20.70
2022-10-16T15:28:58.196Z,20.70
2022-10-16T15:31:25.271Z,20.70
2022-10-16T15:33:55.234Z,20.70
2022-10-16T15:36:38.954Z,20.70
2022-10-16T15:39:19.537Z,20.70
2022-10-16T15:41:52.207Z,20.70
2022-10-16T15:44:19.797Z,20.70
2022-10-16T15:46:47.303Z,20.60
2022-10-16T15:49:14.699Z,20.60
2022-10-16T15:51:43.196Z,20.70
2022-10-16T15:54:10.358Z,20.60
2022-10-16T15:56:38.190Z,20.60
2022-10-16T15:59:05.588Z,20.60
2022-10-16T16:01:36.808Z,20.60
2022-10-16T16:04:11.031Z,20.60
2022-10-16T16:06:45.827Z,20.60
2022-10-16T16:09:14.647Z,20.60
2022-10-16T16:11:41.851Z,20.70
2022-10-16T16:14:12.772Z,20.60
2022-10-16T16:16:39.674Z,20.70
2022-10-16T16:19:10.739Z,20.70
2022-10-16T16:21:39.349Z,20.60
2022-10-16T16:24:09.625Z,20.60
2022-10-16T16:26:40.388Z,20.60
2022-10-16T16:29:07.590Z,20.60
2022-10-16T16:31:35.736Z,20.60
2022-10-16T16:34:03.633Z,20.60
2022-10-16T16:36:30.454Z,20.60
2022-10-16T16:38:58.294Z,20.60
2022-10-16T16:41:27.770Z,20.60
2022-10-16T16:43:55.736Z,20.50
2022-10-16T16:46:23.503Z,20.50
2022-10-16T16:48:55.685Z,20.50
2022-10-16T16:51:22.894Z,20.50
2022-10-16T16:53:52.052Z,20.50
2022-10-16T16:56:19.996Z,20.50
2022-10-16T16:58:47.848Z,20.50
2022-10-16T17:01:19.842Z,20.50
2022-10-16T17:03:50.481Z,20.50
2022-10-16T17:06:20.322Z,20.50
2022-10-16T17:08:49.159Z,20.40
2022-10-16T17:11:21.901Z,20.40
2022-10-16T17:13:53.914Z,20.40
2022-10-16T17:16:26.126Z,20.40
2022-10-16T17:18:54.166Z,20.40
2022-10-16T17:21:21.551Z,20.40
2022-10-16T17:23:48.313Z,20.40
2022-10-16T17:26:17.267Z,20.40
2022-10-16T17:28:44.638Z,20.40
2022-10-16T17:31:16.577Z,20.40
2022-10-16T17:33:44.152Z,20.40
2022-10-16T17:36:11.942Z,20.30
2022-10-16T17:38:38.774Z,20.30
2022-10-16T17:41:32.634Z,20.20
2022-10-16T17:43:59.695Z,20.30
2022-10-16T17:46:26.766Z,20.20
2022-10-16T17:48:54.791Z,20.30
2022-10-16T17:51:25.550Z,22.00
2022-10-16T17:53:54.204Z,20.20
2022-10-16T17:56:21.411Z,20.20
2022-10-16T17:58:53.657Z,20.20
2022-10-16T18:01:24.053Z,20.20
2022-10-16T18:04:04.809Z,20.20
2022-10-16T18:06:32.284Z,20.20
2022-10-16T18:09:00.155Z,20.20
2022-10-16T18:11:27.402Z,20.10
2022-10-16T18:13:56.035Z,20.10
2022-10-16T18:16:24.501Z,20.10
2022-10-16T18:18:51.413Z,20.10
2022-10-16T18:21:19.899Z,20.10
2022-10-16T18:23:51.688Z,20.10
2022-10-16T18:26:19.441Z,20.00
2022-10-16T18:28:46.401Z,20.00
2022-10-16T18:31:16.194Z,20.00
2022-10-16T18:33:51.098Z,19.90
2022-10-16T18:36:21.653Z,19.90
2022-10-16T18:38:49.130Z,19.90
2022-10-16T18:41:16.118Z,19.90
2022-10-16T18:43:43.215Z,19.90
2022-10-16T18:46:16.105Z,19.90
2022-10-16T18:48:44.215Z,19.90
2022-10-16T18:51:21.389Z,19.80
2022-10-16T18:53:51.077Z,19.80
2022-10-16T18:56:19.877Z,19.80
2022-10-16T18:58:51.117Z,19.80
2022-10-16T19:01:23.250Z,19.70
2022-10-16T19:03:54.724Z,19.70
2022-10-16T19:06:22.001Z,19.70
2022-10-16T19:08:48.871Z,19.60
2022-10-16T19:11:21.401Z,19.60
2022-10-16T19:13:49.465Z,19.50
2022-10-16T19:16:22.389Z,19.50
2022-10-16T19:18:54.555Z,19.50
2022-10-16T19:21:22.006Z,19.50
2022-10-16T19:23:56.557Z,19.50
2022-10-16T19:26:24.112Z,19.40
2022-10-16T19:28:53.336Z,19.40
2022-10-16T19:31:22.394Z,19.40
2022-10-16T19:33:55.876Z,19.40
2022-10-16T19:36:28.156Z,19.40
2022-10-16T19:39:03.702Z,19.30
2022-10-16T19:41:31.341Z,19.30
2022-10-16T19:44:07.094Z,19.30
2022-10-16T19:46:34.990Z,19.20
2022-10-16T19:49:05.047Z,19.20
2022-10-16T19:51:32.705Z,19.20
2022-10-16T19:54:02.549Z,19.20
2022-10-16T19:56:31.304Z,19.20
2022-10-16T19:58:59.902Z,19.20
2022-10-16T20:01:31.816Z,19.10
2022-10-16T20:03:59.096Z,19.10
2022-10-16T20:06:26.228Z,19.00
2022-10-16T20:08:54.100Z,19.00
2022-10-16T20:11:23.374Z,19.00
2022-10-16T20:13:51.053Z,19.00
2022-10-16T20:16:19.676Z,19.00
2022-10-16T20:18:48.347Z,18.90
2022-10-16T20:21:23.683Z,18.90
2022-10-16T20:23:51.104Z,18.90
2022-10-16T20:26:20.111Z,18.80
2022-10-16T20:28:47.044Z,18.80
2022-10-16T20:31:20.732Z,18.80
2022-10-16T20:33:47.548Z,18.70
2022-10-16T20:36:16.228Z,18.70
2022-10-16T20:38:44.095Z,18.80
2022-10-16T20:41:11.544Z,18.80
2022-10-16T20:46:17.625Z,18.70
2022-10-16T20:48:46.725Z,18.70
2022-10-16T20:51:18.260Z,18.60
2022-10-16T20:53:46.823Z,18.60
2022-10-16T20:56:16.004Z,18.60
2022-10-16T20:58:43.080Z,18.50
2022-10-16T21:01:13.169Z,18.60
2022-10-16T21:03:40.373Z,18.60
2022-10-16T21:06:09.683Z,18.50
2022-10-16T21:08:38.749Z,18.50
2022-10-16T21:11:19.198Z,18.50
2022-10-16T21:13:46.739Z,18.50
2022-10-16T21:16:14.738Z,18.50
2022-10-16T21:18:44.534Z,18.40
2022-10-16T21:21:19.994Z,18.40
2022-10-16T21:23:47.927Z,18.30
2022-10-16T21:26:14.909Z,18.40
2022-10-16T21:28:41.993Z,18.30
2022-10-16T21:31:19.080Z,18.40
2022-10-16T21:33:46.721Z,18.40
2022-10-16T21:36:16.067Z,18.40
2022-10-16T21:38:43.369Z,18.30
2022-10-16T21:41:29.876Z,18.30
2022-10-16T21:43:57.572Z,18.30
2022-10-16T21:46:27.136Z,18.30
2022-10-16T21:48:58.217Z,18.30
2022-10-16T21:51:31.276Z,18.20
2022-10-16T21:53:58.065Z,18.20
2022-10-16T21:56:24.933Z,18.20
2022-10-16T21:58:52.078Z,18.20
2022-10-16T22:01:22.315Z,18.20
2022-10-16T22:03:52.454Z,18.20
2022-10-16T22:08:51.161Z,18.10
2022-10-16T22:11:23.052Z,18.10
2022-10-16T22:13:54.137Z,18.10
2022-10-16T22:16:25.161Z,18.10
2022-10-16T22:18:53.170Z,18.00
2022-10-16T22:21:19.913Z,18.10
2022-10-16T22:23:46.870Z,18.10
2022-10-16T22:26:13.812Z,18.10
2022-10-16T22:28:41.444Z,18.00
2022-10-16T22:31:11.029Z,18.00
2022-10-16T22:33:38.115Z,18.00
2022-10-16T22:36:08.773Z,17.90
2022-10-16T22:38:36.554Z,18.00
2022-10-16T22:41:12.520Z,17.90
2022-10-16T22:43:49.657Z,18.00
2022-10-16T22:46:28.285Z,17.90
2022-10-16T22:48:56.114Z,17.90
2022-10-16T22:51:27.643Z,17.90
2022-10-16T22:53:54.671Z,17.80
2022-10-16T22:56:22.133Z,17.90
2022-10-16T22:58:49.351Z,17.90
2022-10-16T23:01:19.815Z,17.90
2022-10-16T23:03:46.610Z,17.80
2022-10-16T23:06:13.700Z,17.90
2022-10-16T23:08:40.724Z,17.90
2022-10-16T23:11:09.844Z,17.80
2022-10-16T23:13:45.086Z,17.80
2022-10-16T23:16:15.706Z,17.80
2022-10-16T23:18:44.197Z,17.80
2022-10-16T23:21:14.611Z,17.80
2022-10-16T23:23:41.887Z,17.80
2022-10-16T23:26:17.812Z,17.80
2022-10-16T23:28:45.426Z,17.70
2022-10-16T23:31:17.231Z,17.70
2022-10-16T23:33:44.644Z,17.70
2022-10-16T23:36:14.922Z,17.70
2022-10-16T23:38:43.298Z,17.70
2022-10-16T23:41:10.919Z,17.70
2022-10-16T23:43:37.849Z,17.60
2022-10-16T23:46:05.548Z,17.60
2022-10-16T23:48:32.387Z,17.60
2022-10-16T23:50:59.219Z,17.60
2022-10-16T23:53:26.893Z,17.60
2022-10-16T23:55:53.679Z,17.60
2022-10-16T23:58:21.145Z,17.60
